createdAt,value
2023-03-27T00:01:41.603Z,61.74
2023-03-27T00:04:07.896Z,62.52
2023-03-27T00:06:34.244Z,62.16
2023-03-27T00:09:00.523Z,62.29
2023-03-27T00:11:26.796Z,62.77
2023-03-27T00:13:53.041Z,62.46
2023-03-27T00:16:19.374Z,62.39
2023-03-27T00:18:45.776Z,61.83
2023-03-27T00:21:12.089Z,61.12
2023-03-27T00:23:38.347Z,61.24
2023-03-27T00:26:04.681Z,61.47
2023-03-27T00:28:30.939Z,62.08
2023-03-27T00:30:57.404Z,61.56
2023-03-27T00:33:23.911Z,61.95
2023-03-27T00:35:50.190Z,61.06
2023-03-27T00:38:16.480Z,61.13
2023-03-27T00:40:42.785Z,61.53
2023-03-27T00:43:09.125Z,62.55
2023-03-27T00:45:35.399Z,62.51
2023-03-27T00:48:01.675Z,62.66
2023-03-27T00:50:27.992Z,62.18
2023-03-27T00:52:54.238Z,62.34
2023-03-27T00:55:20.526Z,61.78
2023-03-27T00:57:46.815Z,61.45
2023-03-27T01:00:13.092Z,61.60
2023-03-27T01:02:39.390Z,61.14
2023-03-27T01:05:05.706Z,61.59
2023-03-27T01:07:31.973Z,61.48
2023-03-27T01:09:58.232Z,61.57
2023-03-27T01:12:24.499Z,61.75
2023-03-27T01:14:50.750Z,61.64
2023-03-27T01:17:17.000Z,62.11
2023-03-27T01:19:43.244Z,61.50
2023-03-27T01:22:09.509Z,61.57
2023-03-27T01:24:35.825Z,62.34
2023-03-27T01:27:02.094Z,62.10
2023-03-27T01:29:28.364Z,62.70
2023-03-27T01:31:54.661Z,62.93
2023-03-27T01:34:20.926Z,62.40
2023-03-27T01:36:47.193Z,62.64
2023-03-27T01:39:13.488Z,62.70
2023-03-27T01:41:39.751Z,62.64
2023-03-27T01:44:06.006Z,63.20
2023-03-27T01:46:32.309Z,63.60
2023-03-27T01:48:58.595Z,63.18
2023-03-27T01:51:24.863Z,63.71
2023-03-27T01:53:51.101Z,64.02
2023-03-27T01:56:17.347Z,63.25
2023-03-27T01:58:43.589Z,64.11
2023-03-27T02:01:10.210Z,63.58
2023-03-27T02:03:36.785Z,64.05
2023-03-27T02:06:03.068Z,63.86
2023-03-27T02:08:29.298Z,63.91
2023-03-27T02:10:55.743Z,64.43
2023-03-27T02:13:22.156Z,64.75
2023-03-27T02:15:48.414Z,64.36
2023-03-27T02:18:14.712Z,64.45
2023-03-27T02:20:40.989Z,64.94
2023-03-27T02:23:07.259Z,64.72
2023-03-27T02:25:33.539Z,64.04
2023-03-27T02:27:59.815Z,64.39
2023-03-27T02:30:26.049Z,64.00
2023-03-27T02:32:52.345Z,63.18
2023-03-27T02:35:18.633Z,63.03
2023-03-27T02:37:44.915Z,63.65
2023-03-27T02:40:11.180Z,63.90
2023-03-27T02:42:37.468Z,63.54
2023-03-27T02:45:03.781Z,63.06
2023-03-27T02:47:30.131Z,63.77
2023-03-27T02:49:56.416Z,62.89
2023-03-27T02:52:22.693Z,63.27
2023-03-27T02:54:48.972Z,63.39
2023-03-27T02:57:15.306Z,63.21
2023-03-27T02:59:41.584Z,63.57
2023-03-27T03:02:07.903Z,63.69
2023-03-27T03:04:34.177Z,62.63
2023-03-27T03:07:00.432Z,62.89
2023-03-27T03:09:26.692Z,62.95
2023-03-27T03:11:52.965Z,63.25
2023-03-27T03:14:19.228Z,63.92
2023-03-27T03:16:45.567Z,64.23
2023-03-27T03:19:11.936Z,63.76
2023-03-27T03:21:38.207Z,63.97
2023-03-27T03:24:04.467Z,63.96
2023-03-27T03:26:30.700Z,64.40
2023-03-27T03:29:00.852Z,64.65
2023-03-27T03:31:27.939Z,64.98
2023-03-27T03:33:54.233Z,64.08
2023-03-27T03:36:20.483Z,64.43
2023-03-27T03:38:46.761Z,65.10
2023-03-27T03:41:13.014Z,65.25
2023-03-27T03:43:39.289Z,64.96
2023-03-27T03:46:05.618Z,64.98
2023-03-27T03:48:31.968Z,64.50
2023-03-27T03:50:58.356Z,64.91
2023-03-27T03:53:24.792Z,64.50
2023-03-27T03:55:51.049Z,63.86
2023-03-27T03:58:17.320Z,63.87
2023-03-27T04:00:43.665Z,64.12
2023-03-27T04:03:10.006Z,63.84
2023-03-27T04:05:36.376Z,63.40
2023-03-27T04:08:02.666Z,64.02
2023-03-27T04:10:28.944Z,63.58
2023-03-27T04:12:55.216Z,64.10
2023-03-27T04:15:21.474Z,63.64
2023-03-27T04:17:47.926Z,63.81
2023-03-27T04:20:14.242Z,63.88
2023-03-27T04:22:40.524Z,63.36
2023-03-27T04:25:06.801Z,63.31
2023-03-27T04:27:33.053Z,63.31
2023-03-27T04:29:59.315Z,63.10
2023-03-27T04:32:25.579Z,62.21
2023-03-27T04:34:51.893Z,62.94
2023-03-27T04:37:18.188Z,63.07
2023-03-27T04:39:49.740Z,63.22
2023-03-27T04:42:16.069Z,62.95
2023-03-27T04:44:42.331Z,63.39
2023-03-27T04:47:09.039Z,63.65
2023-03-27T04:49:35.425Z,63.64
2023-03-27T04:52:01.695Z,64.01
2023-03-27T04:54:27.947Z,64.72
2023-03-27T04:56:54.224Z,61.31
2023-03-27T04:59:20.539Z,62.47
2023-03-27T05:01:46.874Z,63.10
2023-03-27T05:04:13.161Z,63.29
2023-03-27T05:06:40.552Z,61.96
2023-03-27T05:09:07.013Z,61.48
2023-03-27T05:11:33.362Z,61.69
2023-03-27T05:13:59.627Z,61.17
2023-03-27T05:16:25.900Z,61.31
2023-03-27T05:18:52.167Z,60.70
2023-03-27T05:21:18.475Z,60.63
2023-03-27T05:23:44.765Z,60.24
2023-03-27T05:26:11.130Z,60.55
2023-03-27T05:28:37.393Z,60.37
2023-03-27T05:31:03.731Z,60.57
2023-03-27T05:33:30.054Z,60.98
2023-03-27T05:35:56.339Z,60.41
2023-03-27T05:38:24.849Z,59.93
2023-03-27T05:40:51.179Z,60.72
2023-03-27T05:43:17.419Z,60.89
2023-03-27T05:45:43.804Z,60.77
2023-03-27T05:48:10.181Z,60.78
2023-03-27T05:50:36.466Z,61.15
2023-03-27T05:53:02.722Z,61.69
2023-03-27T05:55:28.988Z,60.74
2023-03-27T05:57:55.286Z,61.81
2023-03-27T06:00:21.538Z,61.76
2023-03-27T06:02:47.914Z,61.77
2023-03-27T06:05:14.231Z,60.79
2023-03-27T06:07:42.984Z,61.40
2023-03-27T06:10:13.683Z,61.67
2023-03-27T06:12:40.512Z,61.39
2023-03-27T06:15:06.894Z,61.70
2023-03-27T06:17:33.192Z,62.07
2023-03-27T06:19:59.559Z,62.72
2023-03-27T06:22:25.826Z,61.30
2023-03-27T06:24:52.080Z,61.66
2023-03-27T06:27:18.348Z,61.85
2023-03-27T06:29:44.683Z,62.31
2023-03-27T06:32:10.930Z,60.84
2023-03-27T06:34:37.196Z,56.99
2023-03-27T06:37:03.484Z,56.62
2023-03-27T06:39:29.786Z,56.06
2023-03-27T06:41:56.061Z,56.94
2023-03-27T06:44:22.337Z,57.04
2023-03-27T06:46:48.718Z,57.29
2023-03-27T06:49:15.004Z,56.38
2023-03-27T06:51:41.260Z,57.17
2023-03-27T06:54:07.613Z,56.67
2023-03-27T06:56:33.922Z,56.03
2023-03-27T06:59:00.260Z,56.43
2023-03-27T07:01:26.586Z,56.62
2023-03-27T07:03:52.894Z,55.98
2023-03-27T07:06:19.175Z,56.87
2023-03-27T07:08:47.681Z,56.90
2023-03-27T07:11:15.257Z,57.87
2023-03-27T07:13:41.633Z,57.53
2023-03-27T07:16:07.932Z,55.98
2023-03-27T07:18:34.234Z,55.83
2023-03-27T07:21:00.780Z,56.73
2023-03-27T07:23:27.254Z,56.63
2023-03-27T07:25:53.553Z,55.41
2023-03-27T07:28:19.857Z,55.70
2023-03-27T07:30:46.128Z,55.23
2023-03-27T07:33:12.722Z,54.72
2023-03-27T07:35:39.255Z,54.86
2023-03-27T07:38:05.616Z,54.99
2023-03-27T07:40:39.384Z,55.25
2023-03-27T07:43:06.522Z,53.88
2023-03-27T07:45:32.812Z,54.01
2023-03-27T07:47:59.182Z,54.54
2023-03-27T07:50:25.475Z,54.78
2023-03-27T07:52:51.718Z,53.86
2023-03-27T07:55:17.989Z,53.74
2023-03-27T08:00:13.485Z,53.41
2023-03-27T08:02:39.929Z,53.56
2023-03-27T08:05:06.453Z,53.04
2023-03-27T08:07:32.820Z,53.16
2023-03-27T08:09:59.242Z,53.28
2023-03-27T08:12:25.505Z,52.60
2023-03-27T08:14:51.784Z,52.33
2023-03-27T08:17:19.972Z,52.61
2023-03-27T08:19:47.760Z,53.58
2023-03-27T08:22:14.041Z,54.28
2023-03-27T08:24:40.361Z,54.06
2023-03-27T08:27:06.638Z,53.28
2023-03-27T08:29:32.928Z,51.82
2023-03-27T08:31:59.226Z,52.15
2023-03-27T08:34:25.492Z,51.17
2023-03-27T08:36:51.765Z,51.70
2023-03-27T08:39:18.034Z,51.03
2023-03-27T08:41:44.300Z,51.22
2023-03-27T08:44:10.707Z,51.19
2023-03-27T08:46:37.039Z,51.24
2023-03-27T08:49:03.334Z,50.30
2023-03-27T08:51:29.658Z,49.58
2023-03-27T08:53:55.946Z,50.27
2023-03-27T08:56:22.250Z,50.44
2023-03-27T08:58:48.533Z,50.52
2023-03-27T09:01:14.878Z,48.76
2023-03-27T09:03:41.252Z,48.74
2023-03-27T09:06:07.611Z,49.60
2023-03-27T09:08:33.865Z,49.12
2023-03-27T09:11:00.166Z,49.24
2023-03-27T09:13:26.748Z,48.78
2023-03-27T09:15:53.041Z,48.80
2023-03-27T09:18:19.331Z,49.14
2023-03-27T09:20:45.605Z,49.10
2023-03-27T09:23:11.856Z,49.06
2023-03-27T09:25:38.129Z,47.75
2023-03-27T09:28:04.382Z,47.40
2023-03-27T09:30:30.640Z,45.88
2023-03-27T09:32:56.980Z,46.82
2023-03-27T09:35:23.360Z,46.37
2023-03-27T09:37:49.775Z,45.20
2023-03-27T09:40:16.071Z,46.04
2023-03-27T09:42:42.331Z,44.86
2023-03-27T09:45:08.611Z,44.91
2023-03-27T09:47:34.921Z,44.28
2023-03-27T09:50:01.188Z,45.11
2023-03-27T09:52:27.461Z,44.98
2023-03-27T09:54:53.799Z,44.35
2023-03-27T09:57:20.115Z,45.42
2023-03-27T09:59:46.484Z,45.37
2023-03-27T10:02:12.764Z,44.92
2023-03-27T10:04:39.025Z,44.04
2023-03-27T10:07:05.347Z,44.57
2023-03-27T10:09:31.650Z,44.43
2023-03-27T10:11:57.920Z,44.79
2023-03-27T10:14:24.171Z,45.22
2023-03-27T10:16:50.515Z,45.40
2023-03-27T10:19:16.799Z,45.99
2023-03-27T10:21:43.055Z,45.48
2023-03-27T10:24:09.371Z,44.93
2023-03-27T10:26:35.640Z,46.96
2023-03-27T10:29:01.910Z,46.54
2023-03-27T10:31:28.260Z,47.46
2023-03-27T10:33:54.612Z,47.07
2023-03-27T10:36:20.884Z,46.78
2023-03-27T10:38:47.146Z,46.80
2023-03-27T10:41:13.422Z,47.14
2023-03-27T10:43:39.688Z,46.13
2023-03-27T10:46:05.995Z,45.84
2023-03-27T10:48:32.289Z,47.08
2023-03-27T10:50:58.737Z,48.31
2023-03-27T10:53:25.197Z,48.21
2023-03-27T10:55:51.585Z,47.22
2023-03-27T10:58:17.887Z,46.86
2023-03-27T11:00:44.148Z,46.80
2023-03-27T11:03:10.494Z,46.26
2023-03-27T11:05:36.805Z,46.99
2023-03-27T11:08:03.109Z,45.69
2023-03-27T11:10:29.401Z,44.91
2023-03-27T11:12:55.671Z,44.91
2023-03-27T11:15:21.968Z,44.18
2023-03-27T11:17:48.290Z,44.40
2023-03-27T11:20:14.601Z,44.49
2023-03-27T11:22:40.856Z,44.18
2023-03-27T11:25:07.092Z,43.07
2023-03-27T11:27:33.394Z,42.15
2023-03-27T11:29:59.697Z,43.06
2023-03-27T11:32:26.037Z,42.26
2023-03-27T11:34:52.332Z,41.12
2023-03-27T11:37:18.601Z,40.95
2023-03-27T11:39:44.885Z,41.05
2023-03-27T11:42:11.137Z,41.47
2023-03-27T11:44:37.396Z,41.07
2023-03-27T11:47:03.697Z,41.79
2023-03-27T11:49:29.972Z,41.75
2023-03-27T11:51:56.245Z,41.91
2023-03-27T11:54:22.543Z,42.03
2023-03-27T11:56:48.860Z,41.81
2023-03-27T11:59:15.150Z,41.68
2023-03-27T12:01:41.420Z,41.33
2023-03-27T12:04:07.781Z,42.21
2023-03-27T12:06:34.096Z,41.65
2023-03-27T12:09:00.369Z,42.64
2023-03-27T12:11:26.633Z,42.43
2023-03-27T12:14:01.103Z,41.27
2023-03-27T12:16:28.274Z,40.96
2023-03-27T12:19:03.786Z,41.44
2023-03-27T12:21:32.415Z,40.34
2023-03-27T12:23:58.668Z,40.75
2023-03-27T12:26:24.937Z,40.47
2023-03-27T12:28:51.255Z,40.16
2023-03-27T12:31:17.555Z,39.08
2023-03-27T12:33:43.861Z,40.49
2023-03-27T12:36:10.187Z,39.82
2023-03-27T12:38:36.527Z,38.97
2023-03-27T12:41:02.804Z,39.28
2023-03-27T12:43:29.096Z,39.86
2023-03-27T12:45:55.392Z,39.92
2023-03-27T12:48:21.688Z,39.40
2023-03-27T12:50:48.010Z,40.23
2023-03-27T12:53:14.278Z,40.83
2023-03-27T12:55:40.543Z,40.14
2023-03-27T12:58:06.953Z,40.46
2023-03-27T13:00:33.308Z,38.19
2023-03-27T13:02:59.624Z,39.47
2023-03-27T13:05:27.830Z,39.93
2023-03-27T13:07:54.756Z,39.77
2023-03-27T13:10:21.123Z,39.42
2023-03-27T13:12:47.407Z,39.52
2023-03-27T13:15:13.667Z,39.27
2023-03-27T13:17:39.978Z,38.98
2023-03-27T13:20:06.483Z,39.00
2023-03-27T13:22:36.563Z,39.12
2023-03-27T13:25:03.461Z,39.03
2023-03-27T13:27:29.740Z,39.25
2023-03-27T13:29:55.989Z,38.90
2023-03-27T13:32:22.314Z,37.29
2023-03-27T13:34:48.728Z,37.89
2023-03-27T13:37:15.053Z,37.21
2023-03-27T13:39:41.396Z,38.22
2023-03-27T13:42:07.656Z,38.60
2023-03-27T13:44:33.918Z,38.33
2023-03-27T13:47:00.240Z,39.21
2023-03-27T13:49:26.592Z,38.14
2023-03-27T13:51:52.845Z,36.21
2023-03-27T13:54:19.122Z,37.54
2023-03-27T13:56:45.428Z,37.92
2023-03-27T13:59:11.887Z,37.64
2023-03-27T14:01:38.237Z,38.53
2023-03-27T14:04:04.537Z,37.86
2023-03-27T14:06:30.852Z,37.27
2023-03-27T14:08:57.111Z,36.64
2023-03-27T14:11:23.426Z,37.82
2023-03-27T14:13:49.686Z,38.56
2023-03-27T14:16:16.010Z,37.35
2023-03-27T14:18:42.312Z,36.82
2023-03-27T14:21:08.587Z,38.04
2023-03-27T14:23:34.937Z,36.97
2023-03-27T14:26:01.193Z,37.34
2023-03-27T14:28:27.456Z,36.64
2023-03-27T14:30:54.999Z,37.70
2023-03-27T14:33:21.352Z,37.15
2023-03-27T14:35:47.663Z,38.63
2023-03-27T14:38:13.951Z,38.14
2023-03-27T14:40:40.265Z,37.15
2023-03-27T14:43:06.530Z,35.28
2023-03-27T14:45:32.909Z,36.04
2023-03-27T14:47:59.334Z,36.41
2023-03-27T14:50:25.724Z,37.07
2023-03-27T14:52:52.003Z,37.24
2023-03-27T14:55:18.284Z,35.62
2023-03-27T14:57:44.608Z,34.74
2023-03-27T15:00:10.956Z,35.45
2023-03-27T15:02:37.257Z,35.77
2023-03-27T15:05:03.590Z,35.80
2023-03-27T15:07:29.852Z,35.68
2023-03-27T15:09:56.150Z,35.22
2023-03-27T15:12:22.397Z,35.04
2023-03-27T15:14:48.672Z,35.64
2023-03-27T15:17:14.981Z,36.05
2023-03-27T15:19:41.531Z,36.00
2023-03-27T15:22:07.863Z,35.23
2023-03-27T15:24:34.195Z,36.21
2023-03-27T15:27:00.554Z,34.31
2023-03-27T15:29:26.805Z,34.00
2023-03-27T15:31:53.069Z,35.03
2023-03-27T15:34:19.361Z,36.07
2023-03-27T15:36:45.641Z,35.36
2023-03-27T15:39:11.929Z,35.16
2023-03-27T15:41:38.195Z,35.51
2023-03-27T15:44:04.480Z,36.12
2023-03-27T15:46:30.771Z,34.72
2023-03-27T15:48:57.137Z,34.77
2023-03-27T15:51:23.428Z,34.53
2023-03-27T15:53:49.708Z,34.08
2023-03-27T15:56:15.966Z,33.91
2023-03-27T15:58:42.242Z,34.41
2023-03-27T16:01:19.658Z,35.04
2023-03-27T16:03:46.421Z,34.40
2023-03-27T16:06:12.787Z,33.60
2023-03-27T16:08:39.032Z,33.70
2023-03-27T16:11:05.304Z,34.17
2023-03-27T16:13:31.618Z,35.47
2023-03-27T16:15:58.077Z,36.22
2023-03-27T16:18:24.712Z,36.00
2023-03-27T16:20:50.992Z,36.16
2023-03-27T16:23:17.254Z,35.51
2023-03-27T16:25:43.496Z,36.15
2023-03-27T16:28:09.907Z,36.60
2023-03-27T16:30:36.304Z,36.63
2023-03-27T16:33:03.040Z,36.50
2023-03-27T16:35:29.366Z,36.51
2023-03-27T16:37:55.663Z,36.67
2023-03-27T16:40:21.918Z,36.81
2023-03-27T16:42:48.209Z,36.79
2023-03-27T16:45:14.466Z,35.90
2023-03-27T16:47:40.790Z,35.14
2023-03-27T16:50:11.735Z,35.07
2023-03-27T16:52:38.176Z,35.92
2023-03-27T16:55:06.456Z,35.58
2023-03-27T16:57:33.625Z,35.76
2023-03-27T16:59:59.896Z,36.44
2023-03-27T17:02:26.239Z,36.26
2023-03-27T17:04:55.418Z,36.34
2023-03-27T17:07:21.803Z,37.23
2023-03-27T17:09:48.074Z,37.47
2023-03-27T17:12:14.330Z,37.74
2023-03-27T17:14:40.607Z,37.54
2023-03-27T17:17:06.903Z,38.12
2023-03-27T17:19:33.213Z,37.62
2023-03-27T17:21:59.553Z,37.91
2023-03-27T17:24:25.859Z,37.67
2023-03-27T17:26:52.179Z,38.29
2023-03-27T17:29:18.481Z,38.31
2023-03-27T17:31:44.780Z,38.03
2023-03-27T17:34:11.089Z,37.97
2023-03-27T17:36:44.943Z,38.12
2023-03-27T17:39:15.982Z,38.51
2023-03-27T17:41:42.256Z,38.92
2023-03-27T17:44:08.596Z,39.17
2023-03-27T17:46:34.938Z,39.09
2023-03-27T17:49:01.257Z,39.37
2023-03-27T17:51:27.561Z,39.23
2023-03-27T17:53:53.835Z,38.95
2023-03-27T17:56:20.143Z,39.45
2023-03-27T17:58:46.519Z,39.19
2023-03-27T18:01:12.940Z,39.96
2023-03-27T18:03:39.528Z,39.95
2023-03-27T18:06:05.850Z,40.47
2023-03-27T18:08:32.107Z,40.00
2023-03-27T18:10:58.492Z,40.33
2023-03-27T18:13:24.846Z,40.26
2023-03-27T18:15:51.173Z,39.97
2023-03-27T18:18:17.488Z,40.37
2023-03-27T18:20:43.768Z,40.53
2023-03-27T18:23:10.060Z,40.13
2023-03-27T18:25:36.341Z,40.29
2023-03-27T18:28:02.648Z,39.71
2023-03-27T18:30:30.429Z,40.32
2023-03-27T18:32:58.089Z,40.92
2023-03-27T18:35:24.364Z,40.06
2023-03-27T18:37:50.646Z,40.48
2023-03-27T18:40:16.949Z,40.63
2023-03-27T18:42:43.240Z,40.59
2023-03-27T18:45:09.543Z,40.14
2023-03-27T18:47:35.919Z,40.76
2023-03-27T18:50:02.217Z,41.03
2023-03-27T18:52:28.582Z,41.11
2023-03-27T18:54:54.932Z,40.88
2023-03-27T18:57:21.268Z,41.31
2023-03-27T18:59:47.560Z,41.17
2023-03-27T19:02:13.871Z,41.51
2023-03-27T19:04:40.192Z,41.54
2023-03-27T19:07:08.638Z,41.41
2023-03-27T19:09:41.387Z,41.75
2023-03-27T19:12:08.540Z,41.29
2023-03-27T19:14:34.997Z,41.42
2023-03-27T19:17:01.340Z,41.70
2023-03-27T19:19:27.631Z,41.39
2023-03-27T19:21:53.911Z,41.63
2023-03-27T19:24:20.232Z,41.50
2023-03-27T19:26:46.526Z,41.50
2023-03-27T19:29:12.867Z,42.13
2023-03-27T19:31:39.276Z,41.46
2023-03-27T19:34:05.552Z,41.39
2023-03-27T19:36:31.929Z,42.30
2023-03-27T19:38:58.335Z,41.87
2023-03-27T19:41:24.609Z,41.59
2023-03-27T19:43:50.958Z,41.36
2023-03-27T19:46:17.272Z,41.61
2023-03-27T19:48:43.584Z,42.19
2023-03-27T19:51:10.044Z,42.23
2023-03-27T19:53:36.310Z,42.02
2023-03-27T19:56:02.607Z,41.75
2023-03-27T19:58:29.150Z,41.54
2023-03-27T20:00:55.436Z,41.80
2023-03-27T20:03:21.752Z,41.98
2023-03-27T20:05:48.045Z,41.80
2023-03-27T20:08:14.328Z,42.05
2023-03-27T20:10:40.576Z,41.65
2023-03-27T20:13:06.826Z,42.30
2023-03-27T20:15:33.171Z,42.41
2023-03-27T20:17:59.580Z,42.24
2023-03-27T20:20:25.887Z,42.07
2023-03-27T20:22:57.466Z,42.11
2023-03-27T20:25:24.095Z,42.31
2023-03-27T20:27:50.376Z,41.49
2023-03-27T20:30:17.094Z,42.10
2023-03-27T20:32:43.724Z,41.67
2023-03-27T20:35:20.782Z,41.65
2023-03-27T20:37:50.421Z,42.21
2023-03-27T20:40:16.742Z,42.43
2023-03-27T20:42:43.015Z,41.82
2023-03-27T20:45:09.295Z,42.51
2023-03-27T20:47:35.682Z,42.06
2023-03-27T20:50:02.008Z,42.08
2023-03-27T20:52:28.321Z,42.55
2023-03-27T20:54:54.626Z,42.42
2023-03-27T20:57:21.067Z,43.15
2023-03-27T20:59:47.754Z,42.98
2023-03-27T21:02:14.077Z,43.52
2023-03-27T21:04:41.470Z,44.26
2023-03-27T21:07:07.804Z,44.31
2023-03-27T21:09:34.122Z,44.15
2023-03-27T21:12:00.448Z,44.80
2023-03-27T21:14:26.802Z,45.74
2023-03-27T21:16:53.147Z,45.31
2023-03-27T21:19:19.454Z,46.05
2023-03-27T21:21:45.814Z,45.54
2023-03-27T21:24:12.100Z,46.52
2023-03-27T21:26:38.371Z,46.87
2023-03-27T21:29:04.652Z,46.14
2023-03-27T21:31:30.915Z,45.97
2023-03-27T21:33:57.189Z,45.96
2023-03-27T21:36:23.577Z,45.55
2023-03-27T21:38:49.956Z,45.76
2023-03-27T21:41:16.295Z,45.86
2023-03-27T21:43:42.580Z,46.81
2023-03-27T21:46:08.857Z,46.69
2023-03-27T21:48:35.254Z,46.01
2023-03-27T21:51:01.577Z,46.77
2023-03-27T21:53:27.915Z,46.80
2023-03-27T21:55:54.353Z,47.01
2023-03-27T21:58:20.655Z,46.73
2023-03-27T22:00:46.910Z,47.40
2023-03-27T22:03:13.175Z,47.22
2023-03-27T22:05:39.478Z,47.82
2023-03-27T22:08:05.739Z,47.41
2023-03-27T22:10:31.994Z,47.52
2023-03-27T22:12:58.251Z,47.69
2023-03-27T22:15:24.524Z,48.29
2023-03-27T22:17:50.820Z,48.11
2023-03-27T22:20:17.101Z,47.58
2023-03-27T22:22:43.372Z,48.23
2023-03-27T22:25:09.630Z,48.62
2023-03-27T22:27:35.885Z,48.02
2023-03-27T22:30:02.138Z,48.43
2023-03-27T22:32:28.456Z,48.10
2023-03-27T22:34:54.736Z,48.36
2023-03-27T22:37:21.069Z,48.34
2023-03-27T22:39:47.362Z,48.70
2023-03-27T22:42:13.665Z,48.95
2023-03-27T22:44:39.961Z,48.78
2023-03-27T22:47:06.229Z,48.91
2023-03-27T22:49:32.521Z,48.24
2023-03-27T22:51:58.769Z,47.88
2023-03-27T22:54:25.021Z,48.05
2023-03-27T22:56:51.303Z,48.22
2023-03-27T22:59:17.632Z,48.26
2023-03-27T23:01:43.970Z,47.85
2023-03-27T23:04:10.287Z,48.26
2023-03-27T23:06:36.562Z,48.00
2023-03-27T23:09:02.818Z,48.61
2023-03-27T23:11:29.083Z,48.82
2023-03-27T23:13:55.341Z,49.49
2023-03-27T23:16:21.617Z,48.86
2023-03-27T23:18:47.876Z,48.70
2023-03-27T23:21:14.131Z,48.79
2023-03-27T23:23:40.494Z,49.19
2023-03-27T23:26:06.782Z,49.25
2023-03-27T23:28:33.074Z,48.87
2023-03-27T23:30:59.371Z,48.62
2023-03-27T23:33:25.641Z,49.18
2023-03-27T23:35:51.996Z,49.17
2023-03-27T23:38:18.278Z,49.20
2023-03-27T23:40:44.509Z,48.80
2023-03-27T23:43:10.796Z,48.89
2023-03-27T23:45:37.080Z,48.47
2023-03-27T23:48:03.373Z,48.77
2023-03-27T23:50:29.672Z,49.01
2023-03-27T23:52:55.928Z,48.87
2023-03-27T23:55:22.211Z,49.44
2023-03-27T23:57:48.494Z,49.77
